sensor_id;sensor_type;location;lat;lon;timestamp;P1;P2;P0
49686;PMS5003;36064;38.180;-122.272;2023-03-01T00:00:00;1.2;1.2;
49686;PMS5003;36064;38.180;-122.272;2023-03-01T00:05:00;1.2;0.4;
49686;PMS5003;36064;38.180;-122.272;2023-03-01T00:10:00;1.2;0.4;
49686;PMS5003;36064;38.180;-122.272;2023-03-01T00:15:00;1.2;0.4;
49686;PMS5003;36064;38.180;-122.272;2023-03-01T00:20:00;1.2;0.4;
49686;PMS5003;36064;38.180;-122.272;2023-03-01T08:30:02;1.2;0.4;
49686;PMS5003;36064;38.180;-122.272;2023-03-01T08:35:00;1.2;0.4;
49686;PMS5003;36064;38.180;-122.272;2023-03-01T08:40:00;1.2;0.4;
49686;PMS5003;36064;38.180;-122.272;2023-03-01T08:45:00;1.2;0.4;
49686;PMS5003;36064;38.180;-122.272;2023-03-01T08:50:00;1.2;0.4;
49686;PMS5003;36064;38.180;-122.272;2023-03-01T08:55:00;1.2;0.4;
49686;PMS5003;36064;38.180;-122.272;2023-03-01T09:05:00;1.2;0.4;
49686;PMS5003;36064;38.180;-122.272;2023-03-01T09:45:02;1.2;0.4;
49686;PMS5003;36064;38.180;-122.272;2023-03-01T09:50:02;1.2;0.4;
49686;PMS5003;36064;38.180;-122.272;2023-03-01T09:55:00;1.2;0.4;
49686;PMS5003;36064;38.180;-122.272;2023-03-01T10:00:02;1.2;0.4;
49686;PMS5003;36064;38.180;-122.272;2023-03-01T10:05:04;1.2;0.4;
49686;PMS5003;36064;38.180;-122.272;2023-03-01T10:10:00;1.2;0.4;
49686;PMS5003;36064;38.180;-122.272;2023-03-01T10:15:02;1.2;0.4;
49686;PMS5003;36064;38.180;-122.272;2023-03-01T10:20:10;1.2;0.4;
49686;PMS5003;36064;38.180;-122.272;2023-03-01T10:25:02;1.2;0.4;
49686;PMS5003;36064;38.180;-122.272;2023-03-01T10:30:02;0.0;0.4;
49686;PMS5003;36064;38.180;-122.272;2023-03-01T10:35:00;0.8;0.4;
49686;PMS5003;36064;38.180;-122.272;2023-03-01T10:40:02;0.6;0.6;
49686;PMS5003;36064;38.180;-122.272;2023-03-01T10:50:01;1.0;0.0;
49686;PMS5003;36064;38.180;-122.272;2023-03-01T10:55:18;2.2;1.0;
49686;PMS5003;36064;38.180;-122.272;2023-03-01T11:00:02;0.0;0.4;
49686;PMS5003;36064;38.180;-122.272;2023-03-01T11:05:02;1.0;0.6;
49686;PMS5003;36064;38.180;-122.272;2023-03-01T11:10:04;1.0;0.6;
49686;PMS5003;36064;38.180;-122.272;2023-03-01T11:15:00;0.4;0.4;
49686;PMS5003;36064;38.180;-122.272;2023-03-01T11:20:01;0.4;0.4;
49686;PMS5003;36064;38.180;-122.272;2023-03-01T11:25:01;1.2;0.8;
49686;PMS5003;36064;38.180;-122.272;2023-03-01T11:30:01;1.8;1.6;
49686;PMS5003;36064;38.180;-122.272;2023-03-01T11:35:01;1.2;0.8;
49686;PMS5003;36064;38.180;-122.272;2023-03-01T11:40:04;1.2;0.8;
49686;PMS5003;36064;38.180;-122.272;2023-03-01T11:45:02;0.79;0.8;
49686;PMS5003;36064;38.180;-122.272;2023-03-01T11:50:03;0.79;0.8;
49686;PMS5003;36064;38.180;-122.272;2023-03-01T11:55:05;0.0;0.0;
49686;PMS5003;36064;38.180;-122.272;2023-03-01T12:00:03;0.8;0.8;
49686;PMS5003;36064;38.180;-122.272;2023-03-01T12:05:11;0.4;0.0;
49686;PMS5003;36064;38.180;-122.272;2023-03-01T12:10:12;1.4;1.2;
49686;PMS5003;36064;38.180;-122.272;2023-03-01T12:15:05;1.4;1.0;
49686;PMS5003;36064;38.180;-122.272;2023-03-01T12:20:05;0.0;0.0;
49686;PMS5003;36064;38.180;-122.272;2023-03-01T12:30:02;0.6;0.2;
49686;PMS5003;36064;38.180;-122.272;2023-03-01T12:40:09;0.4;0.4;
49686;PMS5003;36064;38.180;-122.272;2023-03-01T12:45:12;0.8;0.4;
49686;PMS5003;36064;38.180;-122.272;2023-03-01T12:50:01;0.6;0.6;
49686;PMS5003;36064;38.180;-122.272;2023-03-01T12:55:01;1.4;1.4;
49686;PMS5003;36064;38.180;-122.272;2023-03-01T13:00:02;1.2;1.2;
49686;PMS5003;36064;38.180;-122.272;2023-03-01T13:05:04;1.8;1.6;
49686;PMS5003;36064;38.180;-122.272;2023-03-01T13:10:05;2.4;2.0;
49686;PMS5003;36064;38.180;-122.272;2023-03-01T13:15:00;2.8;2.6;
49686;PMS5003;36064;38.180;-122.272;2023-03-01T13:20:00;1.6;2.0;
49686;PMS5003;36064;38.180;-122.272;2023-03-01T13:25:02;2.0;1.4;
49686;PMS5003;36064;38.180;-122.272;2023-03-01T13:30:00;2.4;1.6;
49686;PMS5003;36064;38.180;-122.272;2023-03-01T13:35:00;2.6;2.2;
49686;PMS5003;36064;38.180;-122.272;2023-03-01T13:40:03;3.0;2.4;
49686;PMS5003;36064;38.180;-122.272;2023-03-01T13:45:00;5.8;4.2;
49686;PMS5003;36064;38.180;-122.272;2023-03-01T13:50:00;3.2;2.8;
49686;PMS5003;36064;38.180;-122.272;2023-03-01T13:55:00;3.0;2.6;
49686;PMS5003;36064;38.180;-122.272;2023-03-01T14:00:00;3.2;3.0;
49686;PMS5003;36064;38.180;-122.272;2023-03-01T16:30:01;2.0;2.0;
49686;PMS5003;36064;38.180;-122.272;2023-03-01T16:35:00;1.0;1.0;
49686;PMS5003;36064;38.180;-122.272;2023-03-01T16:40:00;1.0;1.6;
49686;PMS5003;36064;38.180;-122.272;2023-03-01T16:45:01;2.4;1.8;
49686;PMS5003;36064;38.180;-122.272;2023-03-01T16:50:00;0.6;0.6;
49686;PMS5003;36064;38.180;-122.272;2023-03-01T16:55:01;1.4;0.6;
49686;PMS5003;36064;38.180;-122.272;2023-03-01T17:00:00;0.8;0.4;
49686;PMS5003;36064;38.180;-122.272;2023-03-01T17:05:00;1.4;1.4;
49686;PMS5003;36064;38.180;-122.272;2023-03-01T17:10:01;1.2;1.2;
49686;PMS5003;36064;38.180;-122.272;2023-03-01T17:15:00;0.8;0.8;
49686;PMS5003;36064;38.180;-122.272;2023-03-01T17:20:00;0.8;0.8;
49686;PMS5003;36064;38.180;-122.272;2023-03-01T17:25:00;0.8;0.4;
49686;PMS5003;36064;38.180;-122.272;2023-03-01T17:30:00;0.2;0.0;
49686;PMS5003;36064;38.180;-122.272;2023-03-01T17:35:00;0.4;0.4;
49686;PMS5003;36064;38.180;-122.272;2023-03-01T17:40:00;0.4;0.4;
49686;PMS5003;36064;38.180;-122.272;2023-03-01T17:45:00;0.4;0.4;
49686;PMS5003;36064;38.180;-122.272;2023-03-01T17:50:00;0.4;0.4;
49686;PMS5003;36064;38.180;-122.272;2023-03-01T17:55:00;0.0;0.0;
49686;PMS5003;36064;38.180;-122.272;2023-03-01T18:00:01;0.4;0.4;
49686;PMS5003;36064;38.180;-122.272;2023-03-01T18:05:00;0.4;0.4;
49686;PMS5003;36064;38.180;-122.272;2023-03-01T18:10:00;0.4;0.4;
49686;PMS5003;36064;38.180;-122.272;2023-03-01T18:15:00;0.4;0.4;
49686;PMS5003;36064;38.180;-122.272;2023-03-01T18:20:00;0.4;0.4;
49686;PMS5003;36064;38.180;-122.272;2023-03-01T18:25:00;0.4;0.4;
49686;PMS5003;36064;38.180;-122.272;2023-03-01T18:30:01;0.4;0.4;
49686;PMS5003;36064;38.180;-122.272;2023-03-01T18:35:00;0.4;0.4;
49686;PMS5003;36064;38.180;-122.272;2023-03-01T18:40:00;0.4;0.4;
49686;PMS5003;36064;38.180;-122.272;2023-03-01T18:45:03;0.4;0.4;
49686;PMS5003;36064;38.180;-122.272;2023-03-01T18:50:00;0.4;0.4;
49686;PMS5003;36064;38.180;-122.272;2023-03-01T18:55:01;0.4;0.4;
49686;PMS5003;36064;38.180;-122.272;2023-03-01T19:00:00;0.4;0.4;
49686;PMS5003;36064;38.180;-122.272;2023-03-01T19:05:00;0.4;0.4;
49686;PMS5003;36064;38.180;-122.272;2023-03-01T19:10:00;0.4;0.4;
49686;PMS5003;36064;38.180;-122.272;2023-03-01T19:15:01;0.4;0.4;
49686;PMS5003;36064;38.180;-122.272;2023-03-01T19:20:00;0.4;0.4;
49686;PMS5003;36064;38.180;-122.272;2023-03-01T19:25:00;0.4;0.4;
49686;PMS5003;36064;38.180;-122.272;2023-03-01T19:30:00;0.4;0.4;
49686;PMS5003;36064;38.180;-122.272;2023-03-01T19:35:00;0.4;0.4;
49686;PMS5003;36064;38.180;-122.272;2023-03-01T19:40:00;0.4;0.4;
49686;PMS5003;36064;38.180;-122.272;2023-03-01T19:45:00;0.4;0.4;
49686;PMS5003;36064;38.180;-122.272;2023-03-01T19:50:00;0.4;0.4;
49686;PMS5003;36064;38.180;-122.272;2023-03-01T19:55:00;0.4;0.4;
49686;PMS5003;36064;38.180;-122.272;2023-03-01T20:00:01;0.4;0.4;
49686;PMS5003;36064;38.180;-122.272;2023-03-01T20:05:00;0.4;0.4;
49686;PMS5003;36064;38.180;-122.272;2023-03-01T20:10:00;0.4;0.4;
49686;PMS5003;36064;38.180;-122.272;2023-03-01T20:15:00;0.4;0.4;
49686;PMS5003;36064;38.180;-122.272;2023-03-01T20:20:00;0.4;0.4;
49686;PMS5003;36064;38.180;-122.272;2023-03-01T20:25:00;0.4;0.4;
49686;PMS5003;36064;38.180;-122.272;2023-03-01T20:30:00;0.4;0.4;
49686;PMS5003;36064;38.180;-122.272;2023-03-01T20:35:00;0.4;0.4;
49686;PMS5003;36064;38.180;-122.272;2023-03-01T20:40:00;0.4;0.4;
49686;PMS5003;36064;38.180;-122.272;2023-03-01T20:45:00;0.4;0.4;
49686;PMS5003;36064;38.180;-122.272;2023-03-01T20:50:00;0.4;0.4;
49686;PMS5003;36064;38.180;-122.272;2023-03-01T20:55:00;0.0;0.4;
49686;PMS5003;36064;38.180;-122.272;2023-03-01T21:00:01;0.4;0.4;
49686;PMS5003;36064;38.180;-122.272;2023-03-01T21:05:02;0.4;0.4;
49686;PMS5003;36064;38.180;-122.272;2023-03-01T21:10:01;0.4;0.4;
49686;PMS5003;36064;38.180;-122.272;2023-03-01T21:15:01;0.4;0.4;
49686;PMS5003;36064;38.180;-122.272;2023-03-01T21:20:00;0.4;0.4;
49686;PMS5003;36064;38.180;-122.272;2023-03-01T21:25:00;0.4;0.4;
49686;PMS5003;36064;38.180;-122.272;2023-03-01T21:30:00;0.4;0.4;
49686;PMS5003;36064;38.180;-122.272;2023-03-01T21:35:00;0.4;0.4;
49686;PMS5003;36064;38.180;-122.272;2023-03-01T21:40:00;0.4;0.4;
49686;PMS5003;36064;38.180;-122.272;2023-03-01T21:45:00;0.4;0.4;
49686;PMS5003;36064;38.180;-122.272;2023-03-01T21:50:00;0.0;0.4;
49686;PMS5003;36064;38.180;-122.272;2023-03-01T21:55:00;0.4;0.4;
49686;PMS5003;36064;38.180;-122.272;2023-03-01T22:00:00;0.4;0.4;
49686;PMS5003;36064;38.180;-122.272;2023-03-01T22:05:01;0.4;0.4;
49686;PMS5003;36064;38.180;-122.272;2023-03-01T22:10:03;0.4;0.4;
49686;PMS5003;36064;38.180;-122.272;2023-03-01T22:15:01;0.4;0.4;
49686;PMS5003;36064;38.180;-122.272;2023-03-01T22:20:00;0.4;0.4;
49686;PMS5003;36064;38.180;-122.272;2023-03-01T22:25:00;0.4;0.4;
49686;PMS5003;36064;38.180;-122.272;2023-03-01T22:30:01;0.4;0.4;
49686;PMS5003;36064;38.180;-122.272;2023-03-01T22:35:00;0.4;0.4;
49686;PMS5003;36064;38.180;-122.272;2023-03-01T22:40:00;0.4;0.4;
49686;PMS5003;36064;38.180;-122.272;2023-03-01T22:45:00;0.4;0.4;
49686;PMS5003;36064;38.180;-122.272;2023-03-01T22:50:00;0.4;0.4;
49686;PMS5003;36064;38.180;-122.272;2023-03-01T22:55:00;0.4;0.4;
49686;PMS5003;36064;38.180;-122.272;2023-03-01T23:00:00;0.4;0.4;
49686;PMS5003;36064;38.180;-122.272;2023-03-01T23:05:00;0.4;0.4;
49686;PMS5003;36064;38.180;-122.272;2023-03-01T23:10:00;0.4;0.4;
49686;PMS5003;36064;38.180;-122.272;2023-03-01T23:15:00;0.4;0.4;
49686;PMS5003;36064;38.180;-122.272;2023-03-01T23:20:00;0.4;0.4;
49686;PMS5003;36064;38.180;-122.272;2023-03-01T23:25:00;0.4;0.4;
49686;PMS5003;36064;38.180;-122.272;2023-03-01T23:30:00;0.4;0.4;
49686;PMS5003;36064;38.180;-122.272;2023-03-01T23:35:00;0.4;0.4;
49686;PMS5003;36064;38.180;-122.272;2023-03-01T23:40:00;0.4;0.4;
49686;PMS5003;36064;38.180;-122.272;2023-03-01T23:45:00;0.4;0.4;
49686;PMS5003;36064;38.180;-122.272;2023-03-01T23:50:00;0.4;0.4;
49686;PMS5003;36064;38.180;-122.272;2023-03-01T23:55:00;0.4;0.4;
